createdAt,value
2019-04-16T00:02:00.407Z,7.60
2019-04-16T00:04:46.789Z,7.40
2019-04-16T00:07:33.223Z,7.32
2019-04-16T00:10:19.911Z,7.32
2019-04-16T00:12:54.544Z,7.26
2019-04-16T00:15:22.346Z,7.12
2019-04-16T00:17:49.996Z,7.12
2019-04-16T00:20:37.966Z,7.15
2019-04-16T00:25:44.721Z,7.25
2019-04-16T00:28:31.418Z,7.25
2019-04-16T00:31:17.929Z,7.20
2019-04-16T00:34:04.367Z,7.20
2019-04-16T00:36:50.752Z,7.10
2019-04-16T00:39:37.454Z,7.04
2019-04-16T00:42:23.801Z,6.99
2019-04-16T00:44:51.517Z,6.99
2019-04-16T00:47:19.177Z,6.95
2019-04-16T00:50:05.598Z,6.88
2019-04-16T00:52:51.995Z,6.85
2019-04-16T00:58:32.931Z,6.83
2019-04-16T01:03:34.235Z,6.74
2019-04-16T01:06:06.639Z,6.71
2019-04-16T01:08:31.220Z,6.68
2019-04-16T01:10:58.851Z,6.67
2019-04-16T01:13:45.178Z,6.67
2019-04-16T01:16:32.923Z,6.71
2019-04-16T01:19:19.560Z,6.71
2019-04-16T01:21:47.278Z,6.73
2019-04-16T01:24:33.601Z,6.83
2019-04-16T01:27:20.030Z,6.91
2019-04-16T01:30:06.833Z,6.97
2019-04-16T01:32:53.171Z,7.04
2019-04-16T01:35:39.586Z,7.08
2019-04-16T01:41:43.227Z,7.11
2019-04-16T01:44:19.447Z,7.09
2019-04-16T01:47:05.881Z,7.08
2019-04-16T01:52:40.302Z,7.08
2019-04-16T01:58:13.116Z,7.06
2019-04-16T02:00:40.756Z,7.06
2019-04-16T02:03:29.141Z,7.12
2019-04-16T02:06:15.479Z,7.13
2019-04-16T02:09:03.266Z,7.16
2019-04-16T02:11:33.260Z,7.16
2019-04-16T02:14:01.029Z,7.16
2019-04-16T02:16:47.705Z,7.14
2019-04-16T02:19:34.038Z,7.10
2019-04-16T02:22:20.673Z,7.08
2019-04-16T02:24:48.670Z,7.08
2019-04-16T02:27:36.666Z,7.04
2019-04-16T02:30:23.116Z,7.04
2019-04-16T02:32:50.724Z,7.03
2019-04-16T02:35:38.798Z,7.02
2019-04-16T02:38:11.034Z,7.02
2019-04-16T02:40:35.821Z,6.94
2019-04-16T02:43:07.456Z,6.86
2019-04-16T02:45:58.344Z,6.83
2019-04-16T02:51:31.276Z,6.79
2019-04-16T02:56:57.993Z,6.72
2019-04-16T03:02:23.088Z,6.58
2019-04-16T03:08:05.008Z,6.28
2019-04-16T03:10:32.533Z,6.15
2019-04-16T03:13:23.032Z,6.03
2019-04-16T03:19:12.018Z,5.80
2019-04-16T03:24:47.455Z,5.63
2019-04-16T03:27:33.908Z,5.56
2019-04-16T03:30:03.364Z,5.56
2019-04-16T03:32:50.186Z,5.48
2019-04-16T03:35:17.965Z,5.48
2019-04-16T03:38:05.402Z,5.43
2019-04-16T03:40:34.075Z,5.39
2019-04-16T03:45:40.469Z,5.29
2019-04-16T03:48:26.239Z,5.28
2019-04-16T03:51:14.922Z,5.27
2019-04-16T03:54:04.993Z,5.25
2019-04-16T03:56:52.589Z,5.23
2019-04-16T03:59:40.024Z,5.21
2019-04-16T04:02:08.422Z,5.20
2019-04-16T04:04:57.567Z,5.17
2019-04-16T04:07:24.324Z,5.17
2019-04-16T04:09:55.199Z,5.15
2019-04-16T04:12:42.585Z,5.09
2019-04-16T04:15:11.368Z,5.03
2019-04-16T04:20:44.266Z,4.97
2019-04-16T04:23:45.316Z,4.92
2019-04-16T04:26:00.592Z,4.88
2019-04-16T04:28:48.657Z,4.84
2019-04-16T04:34:21.524Z,4.80
2019-04-16T04:36:49.298Z,4.81
2019-04-16T04:39:35.717Z,4.81
2019-04-16T04:42:03.354Z,4.82
2019-04-16T04:44:33.607Z,4.81
2019-04-16T04:47:20.146Z,4.85
2019-04-16T04:52:40.194Z,4.98
2019-04-16T04:55:07.959Z,5.07
2019-04-16T04:57:54.341Z,5.13
2019-04-16T05:00:22.252Z,5.13
2019-04-16T05:03:08.733Z,5.25
2019-04-16T05:05:56.057Z,5.29
2019-04-16T05:08:43.158Z,5.38
2019-04-16T05:11:29.523Z,5.49
2019-04-16T05:14:15.974Z,5.57
2019-04-16T05:17:03.535Z,5.61
2019-04-16T05:19:52.373Z,5.64
2019-04-16T05:22:38.758Z,5.69
2019-04-16T05:25:25.179Z,5.75
2019-04-16T05:30:25.387Z,5.81
2019-04-16T05:32:53.363Z,5.89
2019-04-16T05:35:21.127Z,5.89
2019-04-16T05:37:51.490Z,5.94
2019-04-16T05:40:36.990Z,6.05
2019-04-16T05:43:04.699Z,6.13
2019-04-16T05:45:34.468Z,6.13
2019-04-16T05:48:21.867Z,6.33
2019-04-16T05:50:49.789Z,6.33
2019-04-16T05:53:37.342Z,6.61
2019-04-16T05:56:24.991Z,6.61
2019-04-16T05:59:12.290Z,6.77
2019-04-16T06:02:11.177Z,6.91
2019-04-16T06:04:28.788Z,7.00
2019-04-16T06:06:56.543Z,7.07
2019-04-16T06:09:24.237Z,7.14
2019-04-16T06:12:10.623Z,7.22
2019-04-16T06:14:54.010Z,7.42
2019-04-16T06:17:39.997Z,7.53
2019-04-16T06:20:29.433Z,7.53
2019-04-16T06:23:15.889Z,7.65
2019-04-16T06:26:02.285Z,7.91
2019-04-16T06:29:00.950Z,7.91
2019-04-16T06:31:51.036Z,8.07
2019-04-16T06:34:25.523Z,8.43
2019-04-16T06:40:32.593Z,8.62
2019-04-16T06:43:05.156Z,8.81
2019-04-16T06:45:51.606Z,9.15
2019-04-16T06:48:38.014Z,9.15
2019-04-16T06:51:24.706Z,9.45
2019-04-16T06:54:11.543Z,9.58
2019-04-16T06:56:57.148Z,9.74
2019-04-16T06:59:33.838Z,9.89
2019-04-16T07:02:32.544Z,9.89
2019-04-16T07:05:22.223Z,10.24
2019-04-16T07:08:09.199Z,10.43
2019-04-16T07:10:44.906Z,10.63
2019-04-16T07:13:21.468Z,10.80
2019-04-16T07:15:49.360Z,10.80
2019-04-16T07:18:20.403Z,10.99
2019-04-16T07:20:48.594Z,11.13
2019-04-16T07:23:16.213Z,11.46
2019-04-16T07:26:03.894Z,11.46
2019-04-16T07:31:52.301Z,12.06
2019-04-16T07:34:37.159Z,12.25
2019-04-16T07:37:24.003Z,12.25
2019-04-16T07:40:10.656Z,12.58
2019-04-16T07:42:58.966Z,12.58
2019-04-16T07:45:41.758Z,12.93
2019-04-16T07:48:28.497Z,12.93
2019-04-16T07:51:27.019Z,13.22
2019-04-16T07:54:06.506Z,13.22
2019-04-16T07:59:32.358Z,13.61
2019-04-16T08:02:17.690Z,13.61
2019-04-16T08:07:43.275Z,14.02
2019-04-16T08:10:29.683Z,14.02
2019-04-16T08:16:00.402Z,14.50
2019-04-16T08:18:28.056Z,14.65
2019-04-16T08:21:14.479Z,14.79
2019-04-16T08:24:00.906Z,14.94
2019-04-16T08:26:47.267Z,14.94
2019-04-16T08:32:25.922Z,15.27
2019-04-16T08:34:54.442Z,15.57
2019-04-16T08:37:53.306Z,15.57
2019-04-16T08:40:15.229Z,15.70
2019-04-16T08:43:01.704Z,15.86
2019-04-16T08:45:29.286Z,15.99
2019-04-16T08:48:02.365Z,16.10
2019-04-16T08:50:30.099Z,16.22
2019-04-16T08:53:00.150Z,16.36
2019-04-16T08:55:46.611Z,16.49
2019-04-16T08:58:14.258Z,16.77
2019-04-16T09:03:35.232Z,17.03
2019-04-16T09:06:04.322Z,17.18
2019-04-16T09:08:53.209Z,17.18
2019-04-16T09:11:38.983Z,17.34
2019-04-16T09:14:25.899Z,17.51
2019-04-16T09:17:13.412Z,17.72
2019-04-16T09:22:49.191Z,18.36
2019-04-16T09:25:34.349Z,18.79
2019-04-16T09:28:25.857Z,19.17
2019-04-16T09:33:58.983Z,19.85
2019-04-16T09:36:46.598Z,20.10
2019-04-16T09:44:53.920Z,21.29
2019-04-16T09:47:23.047Z,22.20
2019-04-16T09:49:50.757Z,22.20
2019-04-16T09:52:37.213Z,22.61
2019-04-16T09:55:23.613Z,23.07
2019-04-16T09:57:54.301Z,23.56
2019-04-16T10:00:28.869Z,23.91
2019-04-16T10:02:58.500Z,24.13
2019-04-16T10:05:29.682Z,24.41
2019-04-16T10:07:57.041Z,24.60
2019-04-16T10:10:28.299Z,25.05
2019-04-16T10:12:54.432Z,25.38
2019-04-16T10:15:22.073Z,25.38
2019-04-16T10:17:49.818Z,25.74
2019-04-16T10:20:17.867Z,26.02
2019-04-16T10:22:45.484Z,26.58
2019-04-16T10:25:22.271Z,26.58
2019-04-16T10:27:58.509Z,26.82
2019-04-16T10:30:32.726Z,27.09
2019-04-16T10:33:00.624Z,27.55
2019-04-16T10:35:28.681Z,27.55
2019-04-16T10:37:56.280Z,27.75
2019-04-16T10:40:44.549Z,27.80
2019-04-16T10:43:44.790Z,27.94
2019-04-16T10:46:35.229Z,28.20
2019-04-16T10:49:28.336Z,28.57
2019-04-16T10:52:24.806Z,28.57
2019-04-16T10:55:00.550Z,28.84
2019-04-16T10:57:46.423Z,29.17
2019-04-16T11:00:30.654Z,29.38
2019-04-16T11:03:06.001Z,29.50
2019-04-16T11:06:02.326Z,29.65
2019-04-16T11:08:30.282Z,29.71
2019-04-16T11:11:00.212Z,29.79
2019-04-16T11:13:33.688Z,30.10
2019-04-16T11:16:07.826Z,30.24
2019-04-16T11:18:35.482Z,30.42
2019-04-16T11:21:03.750Z,30.63
2019-04-16T11:23:31.770Z,30.77
2019-04-16T11:25:59.331Z,30.94
2019-04-16T11:28:26.993Z,31.01
2019-04-16T11:30:56.851Z,30.95
2019-04-16T11:33:27.399Z,31.04
2019-04-16T11:35:59.832Z,30.94
2019-04-16T11:38:27.715Z,30.96
2019-04-16T11:40:55.349Z,31.04
2019-04-16T11:43:23.086Z,31.04
2019-04-16T11:45:51.102Z,31.07
2019-04-16T11:48:18.705Z,31.30
2019-04-16T11:50:46.458Z,31.57
2019-04-16T11:53:14.562Z,31.63
2019-04-16T11:55:42.273Z,31.66
2019-04-16T11:58:24.514Z,31.69
2019-04-16T12:00:56.653Z,31.85
2019-04-16T12:03:48.912Z,31.78
2019-04-16T12:06:41.219Z,31.66
2019-04-16T12:09:24.705Z,31.59
2019-04-16T12:11:59.088Z,31.82
2019-04-16T12:14:42.036Z,31.99
2019-04-16T12:17:31.369Z,31.99
2019-04-16T12:20:19.407Z,32.10
2019-04-16T12:23:18.841Z,32.35
2019-04-16T12:26:09.815Z,32.44
2019-04-16T12:28:55.349Z,32.35
2019-04-16T12:32:03.568Z,32.49
2019-04-16T12:34:46.403Z,32.29
2019-04-16T12:37:46.595Z,32.39
2019-04-16T12:40:24.412Z,32.36
2019-04-16T12:43:09.096Z,32.39
2019-04-16T12:45:43.780Z,32.59
2019-04-16T12:48:19.269Z,32.94
2019-04-16T12:51:02.246Z,32.90
2019-04-16T12:53:46.262Z,32.53
2019-04-16T12:56:46.855Z,32.53
2019-04-16T12:59:24.459Z,32.72
2019-04-16T13:02:02.695Z,32.93
2019-04-16T13:04:49.495Z,32.96
2019-04-16T13:07:34.401Z,32.85
2019-04-16T13:10:38.563Z,32.77
2019-04-16T13:13:26.600Z,32.31
2019-04-16T13:16:18.824Z,30.96
2019-04-16T13:19:06.576Z,30.19
2019-04-16T13:21:39.964Z,30.19
2019-04-16T13:24:35.966Z,30.01
2019-04-16T13:27:28.238Z,29.70
2019-04-16T13:30:01.241Z,29.63
2019-04-16T13:32:27.777Z,29.63
2019-04-16T13:34:57.992Z,29.60
2019-04-16T13:37:24.342Z,29.67
2019-04-16T13:40:02.401Z,29.98
2019-04-16T13:42:32.931Z,30.23
2019-04-16T13:45:16.652Z,30.65
2019-04-16T13:47:46.140Z,31.03
2019-04-16T13:50:41.946Z,30.89
2019-04-16T13:53:29.079Z,30.89
2019-04-16T13:56:18.512Z,30.44
2019-04-16T13:59:09.375Z,29.11
2019-04-16T14:01:46.061Z,27.88
2019-04-16T14:04:14.647Z,27.22
2019-04-16T14:06:45.998Z,26.40
2019-04-16T14:09:12.344Z,25.88
2019-04-16T14:11:40.035Z,25.88
2019-04-16T14:14:08.485Z,25.47
2019-04-16T14:16:36.569Z,25.37
2019-04-16T14:19:06.771Z,25.34
2019-04-16T14:21:41.759Z,25.33
2019-04-16T14:24:11.903Z,25.11
2019-04-16T14:26:43.416Z,25.11
2019-04-16T14:29:11.143Z,24.87
2019-04-16T14:31:39.080Z,24.69
2019-04-16T14:34:16.278Z,24.66
2019-04-16T14:36:43.936Z,24.48
2019-04-16T14:39:22.249Z,24.34
2019-04-16T14:41:56.015Z,24.31
2019-04-16T14:44:20.142Z,24.31
2019-04-16T14:46:49.048Z,24.32
2019-04-16T14:49:18.362Z,24.32
2019-04-16T14:51:46.383Z,24.50
2019-04-16T14:54:25.355Z,24.64
2019-04-16T14:56:58.417Z,24.84
2019-04-16T14:59:47.635Z,25.19
2019-04-16T15:02:30.361Z,25.63
2019-04-16T15:05:15.566Z,26.11
2019-04-16T15:07:45.600Z,26.41
2019-04-16T15:10:47.225Z,26.26
2019-04-16T15:13:49.770Z,25.95
2019-04-16T15:16:38.934Z,25.95
2019-04-16T15:19:24.050Z,25.71
2019-04-16T15:22:19.606Z,25.47
2019-04-16T15:25:09.130Z,25.27
2019-04-16T15:27:55.942Z,25.55
2019-04-16T15:30:51.519Z,25.63
2019-04-16T15:33:23.092Z,25.63
2019-04-16T15:36:01.795Z,25.03
2019-04-16T15:38:54.159Z,24.53
2019-04-16T15:41:30.888Z,23.47
2019-04-16T15:44:09.891Z,23.47
2019-04-16T15:47:15.051Z,23.10
2019-04-16T15:50:13.397Z,23.71
2019-04-16T15:52:48.122Z,23.71
2019-04-16T15:55:37.394Z,23.29
2019-04-16T15:58:32.517Z,22.82
2019-04-16T16:01:18.031Z,22.35
2019-04-16T16:04:09.621Z,21.91
2019-04-16T16:07:02.135Z,21.54
2019-04-16T16:09:41.055Z,21.24
2019-04-16T16:12:11.033Z,20.98
2019-04-16T16:14:39.176Z,20.74
2019-04-16T16:17:07.182Z,20.45
2019-04-16T16:19:37.694Z,20.45
2019-04-16T16:22:11.916Z,20.24
2019-04-16T16:24:41.945Z,20.16
2019-04-16T16:27:06.045Z,20.08
2019-04-16T16:29:33.820Z,19.98
2019-04-16T16:32:06.295Z,19.98
2019-04-16T16:34:31.396Z,19.86
2019-04-16T16:37:02.624Z,19.63
2019-04-16T16:39:34.669Z,19.63
2019-04-16T16:42:02.344Z,19.56
2019-04-16T16:44:30.211Z,19.49
2019-04-16T16:47:16.707Z,19.49
2019-04-16T16:49:44.785Z,19.47
2019-04-16T16:52:30.984Z,19.43
2019-04-16T16:55:00.878Z,19.43
2019-04-16T16:57:42.743Z,19.41
2019-04-16T17:00:35.723Z,19.30
2019-04-16T17:03:13.525Z,19.30
2019-04-16T17:05:42.149Z,19.18
2019-04-16T17:08:09.869Z,19.09
2019-04-16T17:10:37.795Z,18.95
2019-04-16T17:13:05.695Z,18.89
2019-04-16T17:15:33.401Z,18.89
2019-04-16T17:18:01.149Z,18.78
2019-04-16T17:20:30.042Z,18.78
2019-04-16T17:22:57.642Z,18.72
2019-04-16T17:25:36.096Z,18.65
2019-04-16T17:27:57.545Z,18.59
2019-04-16T17:30:26.578Z,18.53
2019-04-16T17:32:54.539Z,18.48
2019-04-16T17:35:22.487Z,18.42
2019-04-16T17:37:50.138Z,18.35
2019-04-16T17:40:51.138Z,18.22
2019-04-16T17:43:33.431Z,18.22
2019-04-16T17:46:24.532Z,18.11
2019-04-16T17:49:11.625Z,18.01
2019-04-16T17:51:58.313Z,17.82
2019-04-16T17:54:46.354Z,17.75
2019-04-16T17:57:45.699Z,17.75
2019-04-16T18:00:38.421Z,17.67
2019-04-16T18:03:27.906Z,17.48
2019-04-16T18:06:17.221Z,17.48
2019-04-16T18:09:12.720Z,17.36
2019-04-16T18:11:52.823Z,17.09
2019-04-16T18:14:48.494Z,16.92
2019-04-16T18:17:46.419Z,16.92
2019-04-16T18:20:24.295Z,16.73
2019-04-16T18:23:19.097Z,16.41
2019-04-16T18:26:03.413Z,16.41
2019-04-16T18:28:37.853Z,16.12
2019-04-16T18:31:14.539Z,16.12
2019-04-16T18:33:56.079Z,16.00
2019-04-16T18:36:45.624Z,15.87
2019-04-16T18:39:37.513Z,15.75
2019-04-16T18:42:07.734Z,15.64
2019-04-16T18:44:56.116Z,15.51
2019-04-16T18:47:42.259Z,15.29
2019-04-16T18:50:35.669Z,15.29
2019-04-16T18:56:00.190Z,15.25
2019-04-16T18:58:27.896Z,15.33
2019-04-16T19:01:24.662Z,15.44
2019-04-16T19:04:21.406Z,15.47
2019-04-16T19:07:09.647Z,15.45
2019-04-16T19:12:18.089Z,15.34
2019-04-16T19:17:55.166Z,15.27
2019-04-16T19:29:14.743Z,14.98
2019-04-16T19:31:57.559Z,14.88
2019-04-16T19:39:47.925Z,14.75
2019-04-16T19:42:25.766Z,14.72
2019-04-16T19:44:53.906Z,14.69
2019-04-16T19:47:40.718Z,14.60
2019-04-16T19:50:10.343Z,14.60
2019-04-16T19:52:38.439Z,14.61
2019-04-16T19:55:06.312Z,14.61
2019-04-16T19:57:34.237Z,14.60
2019-04-16T20:00:04.210Z,14.61
2019-04-16T20:02:51.548Z,14.54
2019-04-16T20:05:38.313Z,14.54
2019-04-16T20:08:39.788Z,14.52
2019-04-16T20:11:08.110Z,14.45
2019-04-16T20:13:54.543Z,14.32
2019-04-16T20:16:22.275Z,14.32
2019-04-16T20:21:38.311Z,14.23
2019-04-16T20:24:27.193Z,14.17
2019-04-16T20:26:55.073Z,14.09
2019-04-16T20:29:58.390Z,13.88
2019-04-16T20:32:34.299Z,13.80
2019-04-16T20:35:19.210Z,13.80
2019-04-16T20:37:53.094Z,13.67
2019-04-16T20:40:38.389Z,13.43
2019-04-16T20:43:06.152Z,13.32
2019-04-16T20:45:55.141Z,13.23
2019-04-16T20:48:44.710Z,13.13
2019-04-16T20:57:25.327Z,12.93
2019-04-16T21:02:43.994Z,12.72
2019-04-16T21:08:24.409Z,12.69
2019-04-16T21:10:51.008Z,12.66
2019-04-16T21:13:37.409Z,12.65
2019-04-16T21:19:28.269Z,12.60
2019-04-16T21:21:45.227Z,12.60
2019-04-16T21:24:31.677Z,12.59
2019-04-16T21:26:59.312Z,12.58
2019-04-16T21:29:45.762Z,12.62
2019-04-16T21:32:32.154Z,12.62
2019-04-16T21:35:18.615Z,12.60
2019-04-16T21:38:19.010Z,12.58
2019-04-16T21:40:56.424Z,12.58
2019-04-16T21:43:28.605Z,12.46
2019-04-16T21:46:20.204Z,12.46
2019-04-16T21:48:46.993Z,12.41
2019-04-16T21:51:33.455Z,12.37
2019-04-16T21:54:01.424Z,12.29
2019-04-16T21:57:01.751Z,12.29
2019-04-16T21:59:21.854Z,12.28
2019-04-16T22:01:52.355Z,12.29
2019-04-16T22:04:22.076Z,12.24
2019-04-16T22:07:10.182Z,12.23
2019-04-16T22:09:52.559Z,12.23
2019-04-16T22:12:26.262Z,12.26
2019-04-16T22:15:12.715Z,12.26
2019-04-16T22:17:59.149Z,12.26
2019-04-16T22:23:00.743Z,12.29
2019-04-16T22:25:29.817Z,12.32
2019-04-16T22:27:57.569Z,12.32
2019-04-16T22:30:43.933Z,12.37
2019-04-16T22:33:30.390Z,12.34
2019-04-16T22:35:58.156Z,12.34
2019-04-16T22:38:44.623Z,12.08
2019-04-16T22:41:31.014Z,11.96
2019-04-16T22:44:17.744Z,11.96
2019-04-16T22:47:04.474Z,11.71
2019-04-16T22:49:56.721Z,11.63
2019-04-16T22:52:21.910Z,11.63
2019-04-16T22:54:52.345Z,11.63
2019-04-16T22:57:37.664Z,11.71
2019-04-16T23:02:55.663Z,11.77
2019-04-16T23:05:23.427Z,11.77
2019-04-16T23:07:51.199Z,11.79
2019-04-16T23:10:37.927Z,11.80
2019-04-16T23:13:24.377Z,11.75
2019-04-16T23:16:11.150Z,11.75
2019-04-16T23:18:57.540Z,11.55
2019-04-16T23:21:43.993Z,11.55
2019-04-16T23:43:53.497Z,11.19
2019-04-16T23:46:53.191Z,11.19
2019-04-16T23:52:01.586Z,11.14
2019-04-16T23:54:46.487Z,11.16
2019-04-16T23:57:35.854Z,11.16
